Detall de PIREP

Printer-friendly versionPDF version

[2013/11/09 08:07:00]
Flight IATA:CT3253
Pilot Number:012
Company ICAO:CAT
Aircraft Type:B738/F
PAX:160
Departing Airport: EPWA
Destination Airport: LEPA
Alternate Airport:LEBL
Online: VATSIM
Route:EVINA/M082F360 N744 TUSIN UM984 DETSA/M082F370 UM984 DIVKO UN852 VERSO UL129 LUNIK
Flight Level:F370
No Slew and time accel
No pause
Crash detect
Detect pilot in Cockpit between each 30 and 45 minutes
08:07 Zero fuel Weight: 123593 Lbs, Fuel Weight: 23421 Lbs
08:07 VATSIM:EPWA 090730Z 15006KT 120V190 CAVOK 10/09 Q1008 NOSIG
08:07 VATSIM:LEPA 090730Z 00000KT 9999 FEW025 SCT035 16/14 Q1019 NOSIG
08:07 VOICE CATALONIAN
08:08 Parking Brakes off
08:14 Take-off
08:14 Take off Weight: 146351 Lbs
08:14 Wind: 151º @ 005 Knots Heading: 150º
08:14 POS N52º 09´ 44´´ E020º 58´ 12´´
08:14 Gear Up: 165 Knots
08:14 Flaps:3 at 165 Knots
08:15 Flaps:2 at 174 Knots
08:15 Flaps:1 at 185Knots
08:15 Flaps:0 at 209 Knots
08:29 Wind:240º@072 Knots Heading: 220º Ground Speed: 402 Knots Altitude 30419 ft
08:44 Wind:228º@088 Knots Heading: 230º Ground Speed: 369 Knots Altitude 35931 ft
08:59 Wind:228º@086 Knots Heading: 228º Ground Speed: 370 Knots Altitude 35977 ft
09:14 Wind:231º@094 Knots Heading: 217º Ground Speed: 365 Knots Altitude 36020 ft
09:29 Wind:228º@076 Knots Heading: 248º Ground Speed: 386 Knots Altitude 36023 ft
09:34 TOC
09:34 Fuel Weight: 13423 Lb
09:44 Wind:228º@082 Knots Heading: 240º Ground Speed: 376 Knots Altitude 36961 ft
09:59 Wind:227º@080 Knots Heading: 232º Ground Speed: 378 Knots Altitude 36968 ft
10:14 Wind:230º@042 Knots Heading: 215º Ground Speed: 430 Knots Altitude 36961 ft
10:29 Wind:235º@076 Knots Heading: 245º Ground Speed: 377 Knots Altitude 37060 ft
10:44 Wind:256º@061 Knots Heading: 214º Ground Speed: 414 Knots Altitude 37171 ft
10:45 TOD
10:45 Fuel Weight: 7200 Lb
10:45 TOC
10:45 Fuel Weight: 7198 Lb
10:57 TOD
10:57 Fuel Weight: 6148 Lb
10:59 Wind:235º@068 Knots Heading: 206º Ground Speed: 374 Knots Altitude 34639 ft
11:10 Flaps:1 at 231 Knots
11:14 Wind:298º@014 Knots Heading: 244º Ground Speed: 252 Knots Altitude 5131 ft
11:14 Flaps:2 at 202 Knots
11:14 Flaps:3 at 201 Knots
11:14 Gear Down: 201 Knots
11:15 Flaps:4 at 188 Knots
11:15 Flaps:5 at 162 Knots
11:15 Flaps:6 at 160 Knots
11:15 Flaps:7 at 143 Knots
11:20 TouchDown:Rate -82 ft/min Speed: 127 Knots
11:20 VATSIM:LEPA 091100Z 06014KT 9999 FEW015 BKN040 18/15 Q1021 NOSIG
11:20 Land
11:20 Wind:002º@012 Knots
11:20 Heading: 254º
11:20 Flight Duration: 03:06
11:20 Landing Weight: 128548 Lbs
11:20 POS N39º 32´ 54´´ E002º 44´ 47´´
11:23 Parking brakes on
11:23 Block to Block Duration: 03:16
11:23 Final Fuel: 4739 Lbls
11:23 Spent Fuel: 18681 Lbls
11:23 Flight Length: 1140 NM
11:23 TOD Land Length: 111 NM

Exportar CSV

Powered by Drupal - Modified by Danger4k